sensor_id;sensor_type;location;lat;lon;timestamp;P1;durP1;ratioP1;P2;durP2;ratioP2
74168;SDS011;62523;53.336;83.690;2024-03-08T00:01:18;46.13;;;23.98;;
74168;SDS011;62523;53.336;83.690;2024-03-08T00:11:21;40.58;;;23.00;;
74168;SDS011;62523;53.336;83.690;2024-03-08T00:16:22;35.65;;;23.17;;
74168;SDS011;62523;53.336;83.690;2024-03-08T00:21:24;36.20;;;21.83;;
74168;SDS011;62523;53.336;83.690;2024-03-08T00:26:27;38.58;;;22.70;;
74168;SDS011;62523;53.336;83.690;2024-03-08T00:31:30;34.30;;;22.73;;
74168;SDS011;62523;53.336;83.690;2024-03-08T00:36:32;34.40;;;22.83;;
74168;SDS011;62523;53.336;83.690;2024-03-08T00:41:34;41.72;;;21.65;;
74168;SDS011;62523;53.336;83.690;2024-03-08T00:46:35;35.40;;;21.50;;
74168;SDS011;62523;53.336;83.690;2024-03-08T00:51:36;37.22;;;24.05;;
74168;SDS011;62523;53.336;83.690;2024-03-08T00:56:38;41.20;;;24.42;;
74168;SDS011;62523;53.336;83.690;2024-03-08T01:01:42;43.20;;;25.05;;
74168;SDS011;62523;53.336;83.690;2024-03-08T01:06:44;67.38;;;47.08;;
74168;SDS011;62523;53.336;83.690;2024-03-08T01:11:48;43.88;;;24.70;;
74168;SDS011;62523;53.336;83.690;2024-03-08T01:16:50;41.50;;;26.07;;
74168;SDS011;62523;53.336;83.690;2024-03-08T01:21:51;42.20;;;25.92;;
74168;SDS011;62523;53.336;83.690;2024-03-08T01:26:53;38.55;;;25.00;;
74168;SDS011;62523;53.336;83.690;2024-03-08T01:31:54;49.30;;;26.38;;
74168;SDS011;62523;53.336;83.690;2024-03-08T01:36:57;49.22;;;25.88;;
74168;SDS011;62523;53.336;83.690;2024-03-08T01:42:04;37.13;;;22.52;;
74168;SDS011;62523;53.336;83.690;2024-03-08T01:47:06;45.67;;;23.92;;
74168;SDS011;62523;53.336;83.690;2024-03-08T01:52:08;37.75;;;23.85;;
74168;SDS011;62523;53.336;83.690;2024-03-08T01:57:09;38.80;;;24.77;;
74168;SDS011;62523;53.336;83.690;2024-03-08T02:02:12;38.58;;;25.08;;
74168;SDS011;62523;53.336;83.690;2024-03-08T02:07:19;40.95;;;25.60;;
74168;SDS011;62523;53.336;83.690;2024-03-08T02:12:20;37.33;;;25.95;;
74168;SDS011;62523;53.336;83.690;2024-03-08T02:17:22;38.47;;;26.50;;
74168;SDS011;62523;53.336;83.690;2024-03-08T02:22:24;36.08;;;24.65;;
74168;SDS011;62523;53.336;83.690;2024-03-08T02:32:27;50.72;;;29.65;;
74168;SDS011;62523;53.336;83.690;2024-03-08T02:37:28;39.92;;;29.90;;
74168;SDS011;62523;53.336;83.690;2024-03-08T02:42:30;37.90;;;25.00;;
74168;SDS011;62523;53.336;83.690;2024-03-08T02:47:31;38.17;;;24.30;;
74168;SDS011;62523;53.336;83.690;2024-03-08T02:52:33;35.40;;;22.48;;
74168;SDS011;62523;53.336;83.690;2024-03-08T02:57:36;42.13;;;24.37;;
74168;SDS011;62523;53.336;83.690;2024-03-08T03:02:38;37.85;;;27.95;;
74168;SDS011;62523;53.336;83.690;2024-03-08T03:12:40;41.97;;;24.60;;
74168;SDS011;62523;53.336;83.690;2024-03-08T03:17:45;42.20;;;27.00;;
74168;SDS011;62523;53.336;83.690;2024-03-08T03:22:48;43.58;;;26.70;;
74168;SDS011;62523;53.336;83.690;2024-03-08T03:27:52;39.53;;;24.35;;
74168;SDS011;62523;53.336;83.690;2024-03-08T03:32:57;32.72;;;21.42;;
74168;SDS011;62523;53.336;83.690;2024-03-08T03:38:01;32.50;;;22.30;;
74168;SDS011;62523;53.336;83.690;2024-03-08T03:43:08;33.20;;;21.30;;
74168;SDS011;62523;53.336;83.690;2024-03-08T03:48:13;32.80;;;20.83;;
74168;SDS011;62523;53.336;83.690;2024-03-08T03:53:14;32.65;;;21.95;;
74168;SDS011;62523;53.336;83.690;2024-03-08T03:58:16;29.83;;;17.87;;
74168;SDS011;62523;53.336;83.690;2024-03-08T04:03:23;32.28;;;23.25;;
74168;SDS011;62523;53.336;83.690;2024-03-08T04:08:24;36.88;;;27.20;;
74168;SDS011;62523;53.336;83.690;2024-03-08T04:13:26;41.15;;;29.17;;
74168;SDS011;62523;53.336;83.690;2024-03-08T04:18:27;29.73;;;22.52;;
74168;SDS011;62523;53.336;83.690;2024-03-08T04:23:29;36.28;;;24.60;;
74168;SDS011;62523;53.336;83.690;2024-03-08T04:28:30;29.30;;;22.20;;
74168;SDS011;62523;53.336;83.690;2024-03-08T04:33:32;31.92;;;22.00;;
74168;SDS011;62523;53.336;83.690;2024-03-08T04:38:36;35.00;;;25.48;;
74168;SDS011;62523;53.336;83.690;2024-03-08T04:53:43;28.30;;;18.77;;
74168;SDS011;62523;53.336;83.690;2024-03-08T05:03:47;35.97;;;27.27;;
74168;SDS011;62523;53.336;83.690;2024-03-08T05:08:50;33.83;;;22.58;;
74168;SDS011;62523;53.336;83.690;2024-03-08T05:13:52;32.30;;;22.20;;
74168;SDS011;62523;53.336;83.690;2024-03-08T05:18:54;30.30;;;21.35;;
74168;SDS011;62523;53.336;83.690;2024-03-08T05:23:57;21.92;;;13.15;;
74168;SDS011;62523;53.336;83.690;2024-03-08T05:28:59;25.98;;;15.10;;
74168;SDS011;62523;53.336;83.690;2024-03-08T05:34:00;31.48;;;13.55;;
74168;SDS011;62523;53.336;83.690;2024-03-08T05:39:02;31.88;;;15.30;;
74168;SDS011;62523;53.336;83.690;2024-03-08T05:44:06;29.27;;;14.57;;
74168;SDS011;62523;53.336;83.690;2024-03-08T05:49:07;31.38;;;16.67;;
74168;SDS011;62523;53.336;83.690;2024-03-08T05:54:11;44.28;;;23.40;;
74168;SDS011;62523;53.336;83.690;2024-03-08T05:59:13;37.17;;;22.35;;
74168;SDS011;62523;53.336;83.690;2024-03-08T06:04:14;36.78;;;25.20;;
74168;SDS011;62523;53.336;83.690;2024-03-08T06:09:18;27.95;;;19.10;;
74168;SDS011;62523;53.336;83.690;2024-03-08T06:14:23;34.78;;;22.35;;
74168;SDS011;62523;53.336;83.690;2024-03-08T06:19:25;33.37;;;20.47;;
74168;SDS011;62523;53.336;83.690;2024-03-08T06:24:27;38.13;;;20.50;;
74168;SDS011;62523;53.336;83.690;2024-03-08T06:29:29;38.70;;;21.90;;
74168;SDS011;62523;53.336;83.690;2024-03-08T06:34:32;23.65;;;17.13;;
74168;SDS011;62523;53.336;83.690;2024-03-08T06:39:35;25.15;;;16.75;;
74168;SDS011;62523;53.336;83.690;2024-03-08T06:54:40;27.13;;;16.93;;
74168;SDS011;62523;53.336;83.690;2024-03-08T06:59:41;27.40;;;17.63;;
74168;SDS011;62523;53.336;83.690;2024-03-08T07:04:43;33.53;;;17.38;;
74168;SDS011;62523;53.336;83.690;2024-03-08T07:14:46;30.52;;;16.00;;
74168;SDS011;62523;53.336;83.690;2024-03-08T07:19:47;27.38;;;15.75;;
74168;SDS011;62523;53.336;83.690;2024-03-08T07:24:50;28.27;;;15.80;;
74168;SDS011;62523;53.336;83.690;2024-03-08T07:30:17;27.42;;;19.30;;
74168;SDS011;62523;53.336;83.690;2024-03-08T07:35:37;29.85;;;17.17;;
74168;SDS011;62523;53.336;83.690;2024-03-08T07:40:40;24.35;;;15.35;;
74168;SDS011;62523;53.336;83.690;2024-03-08T07:45:45;30.48;;;18.30;;
74168;SDS011;62523;53.336;83.690;2024-03-08T07:50:46;22.48;;;17.23;;
74168;SDS011;62523;53.336;83.690;2024-03-08T07:55:47;30.05;;;18.00;;
74168;SDS011;62523;53.336;83.690;2024-03-08T08:00:49;23.30;;;15.70;;
74168;SDS011;62523;53.336;83.690;2024-03-08T08:05:59;23.91;;;14.68;;
74168;SDS011;62523;53.336;83.690;2024-03-08T08:11:02;23.04;;;16.16;;
74168;SDS011;62523;53.336;83.690;2024-03-08T08:21:07;23.90;;;16.23;;
74168;SDS011;62523;53.336;83.690;2024-03-08T08:26:08;26.55;;;17.60;;
74168;SDS011;62523;53.336;83.690;2024-03-08T08:31:12;22.20;;;15.33;;
74168;SDS011;62523;53.336;83.690;2024-03-08T08:36:13;22.57;;;13.63;;
74168;SDS011;62523;53.336;83.690;2024-03-08T08:41:15;19.73;;;14.07;;
74168;SDS011;62523;53.336;83.690;2024-03-08T08:46:18;21.85;;;14.90;;
74168;SDS011;62523;53.336;83.690;2024-03-08T08:51:20;24.33;;;16.25;;
74168;SDS011;62523;53.336;83.690;2024-03-08T08:56:21;21.13;;;15.20;;
74168;SDS011;62523;53.336;83.690;2024-03-08T09:06:24;29.93;;;16.40;;
74168;SDS011;62523;53.336;83.690;2024-03-08T09:11:26;23.50;;;15.27;;
74168;SDS011;62523;53.336;83.690;2024-03-08T09:16:28;25.60;;;16.33;;
74168;SDS011;62523;53.336;83.690;2024-03-08T09:21:29;25.92;;;15.65;;
74168;SDS011;62523;53.336;83.690;2024-03-08T09:26:32;28.50;;;16.25;;
74168;SDS011;62523;53.336;83.690;2024-03-08T09:31:34;19.55;;;15.13;;
74168;SDS011;62523;53.336;83.690;2024-03-08T09:36:35;27.67;;;17.25;;
74168;SDS011;62523;53.336;83.690;2024-03-08T09:41:37;20.05;;;15.25;;
74168;SDS011;62523;53.336;83.690;2024-03-08T09:46:40;22.08;;;16.17;;
74168;SDS011;62523;53.336;83.690;2024-03-08T09:51:41;23.83;;;16.63;;
74168;SDS011;62523;53.336;83.690;2024-03-08T09:56:44;29.83;;;18.48;;
74168;SDS011;62523;53.336;83.690;2024-03-08T10:01:48;26.73;;;16.35;;
74168;SDS011;62523;53.336;83.690;2024-03-08T10:06:49;22.73;;;15.15;;
74168;SDS011;62523;53.336;83.690;2024-03-08T10:11:53;28.05;;;17.27;;
74168;SDS011;62523;53.336;83.690;2024-03-08T10:17:01;20.10;;;15.73;;
74168;SDS011;62523;53.336;83.690;2024-03-08T10:22:04;23.98;;;15.48;;
74168;SDS011;62523;53.336;83.690;2024-03-08T10:27:10;27.92;;;17.15;;
74168;SDS011;62523;53.336;83.690;2024-03-08T10:32:14;25.17;;;14.88;;
74168;SDS011;62523;53.336;83.690;2024-03-08T10:42:23;21.70;;;15.13;;
74168;SDS011;62523;53.336;83.690;2024-03-08T10:47:32;26.35;;;14.77;;
74168;SDS011;62523;53.336;83.690;2024-03-08T10:52:41;25.50;;;14.70;;
74168;SDS011;62523;53.336;83.690;2024-03-08T10:57:43;28.17;;;16.55;;
74168;SDS011;62523;53.336;83.690;2024-03-08T11:02:46;28.33;;;17.35;;
74168;SDS011;62523;53.336;83.690;2024-03-08T11:07:49;22.15;;;15.68;;
74168;SDS011;62523;53.336;83.690;2024-03-08T11:12:52;23.85;;;15.73;;
74168;SDS011;62523;53.336;83.690;2024-03-08T11:17:54;26.67;;;17.75;;
74168;SDS011;62523;53.336;83.690;2024-03-08T11:23:00;27.33;;;18.77;;
74168;SDS011;62523;53.336;83.690;2024-03-08T11:33:26;30.27;;;19.73;;
74168;SDS011;62523;53.336;83.690;2024-03-08T11:38:29;27.85;;;19.60;;
74168;SDS011;62523;53.336;83.690;2024-03-08T11:43:32;28.50;;;20.93;;
74168;SDS011;62523;53.336;83.690;2024-03-08T11:48:34;28.10;;;20.00;;
74168;SDS011;62523;53.336;83.690;2024-03-08T11:53:36;26.65;;;17.58;;
74168;SDS011;62523;53.336;83.690;2024-03-08T11:58:38;37.55;;;20.00;;
74168;SDS011;62523;53.336;83.690;2024-03-08T12:03:41;29.83;;;18.75;;
74168;SDS011;62523;53.336;83.690;2024-03-08T12:08:46;32.25;;;21.70;;
74168;SDS011;62523;53.336;83.690;2024-03-08T12:13:49;36.33;;;26.25;;
74168;SDS011;62523;53.336;83.690;2024-03-08T12:18:52;31.80;;;24.30;;
74168;SDS011;62523;53.336;83.690;2024-03-08T12:24:06;37.08;;;25.10;;
74168;SDS011;62523;53.336;83.690;2024-03-08T12:29:19;41.53;;;26.90;;
74168;SDS011;62523;53.336;83.690;2024-03-08T12:34:28;37.00;;;24.90;;
74168;SDS011;62523;53.336;83.690;2024-03-08T12:39:30;41.50;;;24.90;;
74168;SDS011;62523;53.336;83.690;2024-03-08T12:44:32;40.50;;;23.50;;
74168;SDS011;62523;53.336;83.690;2024-03-08T12:49:33;44.00;;;27.83;;
74168;SDS011;62523;53.336;83.690;2024-03-08T12:54:34;46.78;;;29.60;;
74168;SDS011;62523;53.336;83.690;2024-03-08T12:59:36;52.17;;;33.22;;
74168;SDS011;62523;53.336;83.690;2024-03-08T13:04:38;37.47;;;25.42;;
74168;SDS011;62523;53.336;83.690;2024-03-08T13:09:40;46.90;;;22.45;;
74168;SDS011;62523;53.336;83.690;2024-03-08T13:14:43;41.55;;;23.08;;
74168;SDS011;62523;53.336;83.690;2024-03-08T13:19:44;41.83;;;24.92;;
74168;SDS011;62523;53.336;83.690;2024-03-08T13:24:46;54.05;;;29.27;;
74168;SDS011;62523;53.336;83.690;2024-03-08T13:29:48;44.80;;;30.13;;
74168;SDS011;62523;53.336;83.690;2024-03-08T13:34:50;40.28;;;27.35;;
74168;SDS011;62523;53.336;83.690;2024-03-08T13:39:56;57.35;;;33.28;;
74168;SDS011;62523;53.336;83.690;2024-03-08T13:44:57;43.15;;;30.10;;
74168;SDS011;62523;53.336;83.690;2024-03-08T13:49:59;44.22;;;32.45;;
74168;SDS011;62523;53.336;83.690;2024-03-08T13:55:01;57.10;;;35.13;;
74168;SDS011;62523;53.336;83.690;2024-03-08T14:00:04;48.80;;;34.25;;
74168;SDS011;62523;53.336;83.690;2024-03-08T14:05:14;54.88;;;38.25;;
74168;SDS011;62523;53.336;83.690;2024-03-08T14:10:17;69.75;;;43.42;;
74168;SDS011;62523;53.336;83.690;2024-03-08T14:15:23;67.85;;;43.47;;
74168;SDS011;62523;53.336;83.690;2024-03-08T14:20:25;68.85;;;44.88;;
74168;SDS011;62523;53.336;83.690;2024-03-08T14:25:27;70.53;;;46.47;;
74168;SDS011;62523;53.336;83.690;2024-03-08T14:30:30;65.57;;;44.63;;
74168;SDS011;62523;53.336;83.690;2024-03-08T14:35:42;63.53;;;46.30;;
74168;SDS011;62523;53.336;83.690;2024-03-08T14:40:45;58.58;;;40.55;;
74168;SDS011;62523;53.336;83.690;2024-03-08T14:45:48;65.80;;;39.70;;
74168;SDS011;62523;53.336;83.690;2024-03-08T14:50:59;55.68;;;36.57;;
74168;SDS011;62523;53.336;83.690;2024-03-08T14:56:00;63.26;;;36.84;;
74168;SDS011;62523;53.336;83.690;2024-03-08T15:01:20;57.33;;;40.72;;
74168;SDS011;62523;53.336;83.690;2024-03-08T15:06:25;63.40;;;42.77;;
74168;SDS011;62523;53.336;83.690;2024-03-08T15:11:27;67.50;;;42.90;;
74168;SDS011;62523;53.336;83.690;2024-03-08T15:16:28;65.85;;;39.00;;
74168;SDS011;62523;53.336;83.690;2024-03-08T15:21:30;53.75;;;36.63;;
74168;SDS011;62523;53.336;83.690;2024-03-08T15:26:32;60.47;;;42.65;;
74168;SDS011;62523;53.336;83.690;2024-03-08T15:31:33;65.13;;;47.95;;
74168;SDS011;62523;53.336;83.690;2024-03-08T15:36:35;78.00;;;54.25;;
74168;SDS011;62523;53.336;83.690;2024-03-08T15:41:36;70.55;;;49.92;;
74168;SDS011;62523;53.336;83.690;2024-03-08T15:46:38;71.18;;;49.60;;
74168;SDS011;62523;53.336;83.690;2024-03-08T15:51:40;65.70;;;48.72;;
74168;SDS011;62523;53.336;83.690;2024-03-08T15:56:42;52.95;;;42.45;;
74168;SDS011;62523;53.336;83.690;2024-03-08T16:01:44;62.72;;;44.47;;
74168;SDS011;62523;53.336;83.690;2024-03-08T16:06:51;55.95;;;42.40;;
74168;SDS011;62523;53.336;83.690;2024-03-08T16:11:53;58.38;;;39.15;;
74168;SDS011;62523;53.336;83.690;2024-03-08T16:16:55;56.33;;;37.10;;
74168;SDS011;62523;53.336;83.690;2024-03-08T16:21:56;48.20;;;35.15;;
74168;SDS011;62523;53.336;83.690;2024-03-08T16:26:58;38.50;;;28.42;;
74168;SDS011;62523;53.336;83.690;2024-03-08T16:32:01;43.22;;;32.65;;
74168;SDS011;62523;53.336;83.690;2024-03-08T16:37:04;54.30;;;32.17;;
74168;SDS011;62523;53.336;83.690;2024-03-08T16:42:06;47.10;;;31.63;;
74168;SDS011;62523;53.336;83.690;2024-03-08T16:47:08;42.10;;;29.05;;
74168;SDS011;62523;53.336;83.690;2024-03-08T16:52:12;38.08;;;28.15;;
74168;SDS011;62523;53.336;83.690;2024-03-08T16:57:15;40.13;;;27.05;;
74168;SDS011;62523;53.336;83.690;2024-03-08T17:02:17;39.63;;;29.70;;
74168;SDS011;62523;53.336;83.690;2024-03-08T17:07:19;45.25;;;27.92;;
74168;SDS011;62523;53.336;83.690;2024-03-08T17:12:23;39.13;;;28.00;;
74168;SDS011;62523;53.336;83.690;2024-03-08T17:17:24;39.40;;;28.67;;
74168;SDS011;62523;53.336;83.690;2024-03-08T17:22:26;46.67;;;34.55;;
74168;SDS011;62523;53.336;83.690;2024-03-08T17:27:29;38.92;;;29.60;;
74168;SDS011;62523;53.336;83.690;2024-03-08T17:32:31;39.85;;;29.55;;
74168;SDS011;62523;53.336;83.690;2024-03-08T17:37:34;40.17;;;29.65;;
74168;SDS011;62523;53.336;83.690;2024-03-08T17:42:36;49.55;;;32.20;;
74168;SDS011;62523;53.336;83.690;2024-03-08T17:52:40;80.53;;;50.37;;
74168;SDS011;62523;53.336;83.690;2024-03-08T17:57:43;94.45;;;64.32;;
74168;SDS011;62523;53.336;83.690;2024-03-08T18:02:48;83.30;;;55.92;;
74168;SDS011;62523;53.336;83.690;2024-03-08T18:07:53;74.20;;;45.85;;
74168;SDS011;62523;53.336;83.690;2024-03-08T18:13:00;60.65;;;44.47;;
74168;SDS011;62523;53.336;83.690;2024-03-08T18:18:13;61.40;;;39.15;;
74168;SDS011;62523;53.336;83.690;2024-03-08T18:23:14;56.15;;;34.47;;
74168;SDS011;62523;53.336;83.690;2024-03-08T18:28:16;56.08;;;37.03;;
74168;SDS011;62523;53.336;83.690;2024-03-08T18:38:21;42.42;;;29.92;;
74168;SDS011;62523;53.336;83.690;2024-03-08T18:43:23;45.50;;;30.52;;
74168;SDS011;62523;53.336;83.690;2024-03-08T18:48:27;48.60;;;34.00;;
74168;SDS011;62523;53.336;83.690;2024-03-08T18:53:28;48.20;;;33.60;;
74168;SDS011;62523;53.336;83.690;2024-03-08T18:58:31;45.47;;;29.98;;
74168;SDS011;62523;53.336;83.690;2024-03-08T19:03:33;46.60;;;33.42;;
74168;SDS011;62523;53.336;83.690;2024-03-08T19:08:35;52.67;;;33.00;;
74168;SDS011;62523;53.336;83.690;2024-03-08T19:13:37;49.38;;;33.05;;
74168;SDS011;62523;53.336;83.690;2024-03-08T19:18:39;48.80;;;33.33;;
74168;SDS011;62523;53.336;83.690;2024-03-08T19:23:41;49.08;;;31.10;;
74168;SDS011;62523;53.336;83.690;2024-03-08T19:28:45;50.90;;;31.73;;
74168;SDS011;62523;53.336;83.690;2024-03-08T19:33:47;48.35;;;31.70;;
74168;SDS011;62523;53.336;83.690;2024-03-08T19:38:50;49.10;;;32.10;;
74168;SDS011;62523;53.336;83.690;2024-03-08T19:43:51;46.50;;;31.00;;
74168;SDS011;62523;53.336;83.690;2024-03-08T19:48:53;45.88;;;29.70;;
74168;SDS011;62523;53.336;83.690;2024-03-08T19:53:57;45.20;;;28.20;;
74168;SDS011;62523;53.336;83.690;2024-03-08T19:58:58;43.95;;;28.67;;
74168;SDS011;62523;53.336;83.690;2024-03-08T20:04:00;55.58;;;31.27;;
74168;SDS011;62523;53.336;83.690;2024-03-08T20:14:03;51.83;;;30.80;;
74168;SDS011;62523;53.336;83.690;2024-03-08T20:19:06;53.00;;;32.10;;
74168;SDS011;62523;53.336;83.690;2024-03-08T20:24:10;53.20;;;31.50;;
74168;SDS011;62523;53.336;83.690;2024-03-08T20:34:13;44.17;;;31.50;;
74168;SDS011;62523;53.336;83.690;2024-03-08T20:39:15;43.33;;;30.75;;
74168;SDS011;62523;53.336;83.690;2024-03-08T20:44:16;43.30;;;27.50;;
74168;SDS011;62523;53.336;83.690;2024-03-08T20:49:18;58.08;;;31.92;;
74168;SDS011;62523;53.336;83.690;2024-03-08T20:54:21;53.33;;;31.65;;
74168;SDS011;62523;53.336;83.690;2024-03-08T20:59:23;45.13;;;30.30;;
74168;SDS011;62523;53.336;83.690;2024-03-08T21:04:25;47.65;;;28.98;;
74168;SDS011;62523;53.336;83.690;2024-03-08T21:09:29;45.25;;;30.10;;
74168;SDS011;62523;53.336;83.690;2024-03-08T21:14:31;47.72;;;28.50;;
74168;SDS011;62523;53.336;83.690;2024-03-08T21:19:34;52.35;;;27.77;;
74168;SDS011;62523;53.336;83.690;2024-03-08T21:24:35;43.78;;;27.42;;
74168;SDS011;62523;53.336;83.690;2024-03-08T21:29:39;40.92;;;26.38;;
74168;SDS011;62523;53.336;83.690;2024-03-08T21:34:40;49.00;;;28.88;;
74168;SDS011;62523;53.336;83.690;2024-03-08T21:44:43;48.67;;;28.55;;
74168;SDS011;62523;53.336;83.690;2024-03-08T21:49:45;57.78;;;27.30;;
74168;SDS011;62523;53.336;83.690;2024-03-08T21:54:49;42.13;;;25.90;;
74168;SDS011;62523;53.336;83.690;2024-03-08T21:59:51;40.00;;;23.30;;
74168;SDS011;62523;53.336;83.690;2024-03-08T22:04:54;39.00;;;25.40;;
74168;SDS011;62523;53.336;83.690;2024-03-08T22:09:57;44.75;;;26.10;;
74168;SDS011;62523;53.336;83.690;2024-03-08T22:15:00;40.80;;;25.48;;
74168;SDS011;62523;53.336;83.690;2024-03-08T22:20:03;33.45;;;21.27;;
74168;SDS011;62523;53.336;83.690;2024-03-08T22:25:12;37.42;;;22.95;;
74168;SDS011;62523;53.336;83.690;2024-03-08T22:30:18;34.60;;;22.92;;
74168;SDS011;62523;53.336;83.690;2024-03-08T22:35:20;33.30;;;22.88;;
74168;SDS011;62523;53.336;83.690;2024-03-08T22:45:28;36.28;;;21.35;;
74168;SDS011;62523;53.336;83.690;2024-03-08T22:50:30;33.30;;;20.55;;
74168;SDS011;62523;53.336;83.690;2024-03-08T22:55:31;33.60;;;20.40;;
74168;SDS011;62523;53.336;83.690;2024-03-08T23:00:33;31.75;;;19.17;;
74168;SDS011;62523;53.336;83.690;2024-03-08T23:05:41;30.38;;;19.60;;
74168;SDS011;62523;53.336;83.690;2024-03-08T23:10:42;26.30;;;19.35;;
74168;SDS011;62523;53.336;83.690;2024-03-08T23:15:43;33.00;;;21.45;;
74168;SDS011;62523;53.336;83.690;2024-03-08T23:20:46;33.35;;;20.70;;
74168;SDS011;62523;53.336;83.690;2024-03-08T23:25:58;34.83;;;21.34;;
74168;SDS011;62523;53.336;83.690;2024-03-08T23:31:00;30.53;;;19.53;;
74168;SDS011;62523;53.336;83.690;2024-03-08T23:36:01;29.25;;;19.90;;
74168;SDS011;62523;53.336;83.690;2024-03-08T23:41:04;31.10;;;20.97;;
74168;SDS011;62523;53.336;83.690;2024-03-08T23:46:05;34.90;;;18.93;;
74168;SDS011;62523;53.336;83.690;2024-03-08T23:51:07;34.38;;;21.23;;
74168;SDS011;62523;53.336;83.690;2024-03-08T23:56:08;30.63;;;16.60;;
